Time;durP1;ratioP1;P1;durP2;ratioP2;P2;SDS_P1;SDS_P2;PMS_P1;PMS_P2;Temp;Humidity;BMP_temperature;BMP_pressure;BME280_temperature;BME280_humidity;BME280_pressure;Samples;Min_cycle;Max_cycle;Signal;HPM_P1;HPM_P2
2021/04/06 00:00:44;;;;;;;2.85;1.02;;;;;;;18.29;46.51;101696.69;5047944;28;20025;-79
2021/04/06 00:03:13;;;;;;;2.60;1.20;;;;;;;18.28;46.82;101702.13;5047608;28;20037;-78
2021/04/06 00:05:40;;;;;;;3.80;1.38;;;;;;;18.26;46.41;101706.72;5050563;28;20020;-79
2021/04/06 00:08:06;;;;;;;3.03;1.27;;;;;;;18.23;46.75;101705.22;5050807;28;20037;-79
2021/04/06 00:10:38;;;;;;;3.22;1.30;;;;;;;18.22;46.60;101707.97;5050701;28;20428;-78
2021/04/06 00:13:04;;;;;;;4.35;1.52;;;;;;;18.22;47.03;101707.97;5050691;28;20023;-78
2021/04/06 00:15:31;;;;;;;3.92;1.33;;;;;;;18.19;47.13;101702.94;5048809;28;20033;-78
2021/04/06 00:18:00;;;;;;;3.85;1.40;;;;;;;18.18;47.05;101702.13;5050352;28;20162;-78
2021/04/06 00:20:28;;;;;;;3.53;1.30;;;;;;;18.16;47.37;101698.78;5050809;28;20036;-78
2021/04/06 00:22:55;;;;;;;3.33;1.10;;;;;;;18.16;47.32;101701.41;5043947;28;20037;-78
2021/04/06 00:25:23;;;;;;;3.78;1.33;;;;;;;18.16;47.11;101696.13;5033463;28;20040;-78
2021/04/06 00:27:51;;;;;;;2.78;1.20;;;;;;;18.14;47.28;101692.75;5044850;28;20028;-78
2021/04/06 00:30:23;;;;;;;3.53;1.25;;;;;;;18.15;47.33;101685.66;5044569;28;20025;-78
2021/04/06 00:32:54;;;;;;;2.90;1.23;;;;;;;18.16;46.95;101688.19;5045530;28;20476;-79
2021/04/06 00:35:26;;;;;;;2.53;1.02;;;;;;;18.12;47.39;101685.94;5039965;28;20040;-77
2021/04/06 00:37:52;;;;;;;2.80;1.38;;;;;;;18.13;47.01;101688.47;5032741;28;20035;-77
2021/04/06 00:40:18;;;;;;;3.65;1.00;;;;;;;18.09;47.08;101681.75;5048862;28;20110;-79
2021/04/06 00:42:44;;;;;;;2.70;0.93;;;;;;;18.10;47.49;101691.38;5039768;28;20098;-78
2021/04/06 00:45:16;;;;;;;2.00;0.90;;;;;;;18.10;47.64;101683.41;5048530;28;20036;-78
2021/04/06 00:47:42;;;;;;;2.67;1.08;;;;;;;18.13;47.58;101687.63;5048678;28;20024;-79
2021/04/06 00:50:12;;;;;;;4.40;1.40;;;;;;;18.09;48.10;101692.34;5049173;28;20526;-78
2021/04/06 00:52:44;;;;;;;2.80;1.10;;;;;;;18.19;48.35;101687.88;5048570;28;20104;-78
2021/04/06 00:55:14;;;;;;;3.92;1.02;;;;;;;18.45;48.03;101688.16;5037997;28;20056;-78
2021/04/06 00:57:42;;;;;;;3.33;1.20;;;;;;;18.52;47.94;101684.00;5048992;28;20116;-80
2021/04/06 01:00:10;;;;;;;4.30;1.35;;;;;;;18.50;48.32;101677.13;5050018;28;20041;-80
2021/04/06 01:02:35;;;;;;;3.13;1.10;;;;;;;18.44;48.55;101677.72;5046102;28;20069;-79
2021/04/06 01:05:04;;;;;;;2.45;1.02;;;;;;;18.52;48.23;101672.56;5038072;28;20103;-78
2021/04/06 01:07:33;;;;;;;3.33;1.20;;;;;;;18.51;48.25;101673.53;5071861;28;20396;-78
2021/04/06 01:10:00;;;;;;;3.75;1.23;;;;;;;18.52;48.26;101678.69;5046970;28;20883;-78
2021/04/06 01:12:28;;;;;;;2.65;1.20;;;;;;;18.52;48.46;101667.25;5040622;28;20038;-79
2021/04/06 01:14:55;;;;;;;2.97;1.15;;;;;;;18.55;48.06;101665.16;5045502;28;20025;-79
2021/04/06 01:17:27;;;;;;;2.58;0.93;;;;;;;18.51;47.97;101660.25;5043943;28;20035;-79
2021/04/06 01:19:53;;;;;;;3.47;1.17;;;;;;;18.50;48.37;101661.25;5039668;28;20036;-78
2021/04/06 01:22:19;;;;;;;2.63;1.00;;;;;;;18.51;48.13;101652.31;5039763;28;20111;-78
2021/04/06 01:24:45;;;;;;;3.50;1.10;;;;;;;18.51;48.10;101661.09;5049786;28;20021;-78
2021/04/06 01:27:18;;;;;;;4.60;1.58;;;;;;;18.49;47.79;101665.69;5036461;28;20029;-78
2021/04/06 01:29:49;;;;;;;1.80;0.93;;;;;;;18.39;48.23;101660.41;5049614;28;20029;-78
2021/04/06 01:32:15;;;;;;;3.80;1.10;;;;;;;18.31;48.55;101659.44;5036056;28;20132;-78
2021/04/06 01:34:41;;;;;;;1.67;0.90;;;;;;;18.26;48.48;101657.22;5041116;28;20033;-78
2021/04/06 01:37:06;;;;;;;3.78;1.05;;;;;;;18.23;49.16;101657.50;5043330;28;20082;-75
2021/04/06 01:39:33;;;;;;;2.47;0.93;;;;;;;18.19;48.35;101655.25;5048322;28;20101;-77
2021/04/06 01:42:05;;;;;;;2.45;1.05;;;;;;;18.19;48.94;101655.25;5050651;28;20029;-79
2021/04/06 01:44:31;;;;;;;2.90;1.00;;;;;;;18.20;48.96;101655.13;5082496;28;20041;-79
2021/04/06 01:46:57;;;;;;;2.55;1.05;;;;;;;18.20;48.73;101656.94;5052143;28;20115;-78
2021/04/06 01:49:24;;;;;;;3.05;0.85;;;;;;;18.19;48.76;101649.94;5052046;28;20032;-78
2021/04/06 01:51:55;;;;;;;1.92;0.88;;;;;;;18.17;48.59;101642.16;5051793;28;20036;-78
2021/04/06 01:54:20;;;;;;;2.50;0.90;;;;;;;18.16;48.58;101642.28;5080410;28;20114;-78
2021/04/06 01:56:55;;;;;;;3.25;0.98;;;;;;;18.14;49.05;101642.41;5036217;28;20060;-78
2021/04/06 01:59:24;;;;;;;2.50;0.98;;;;;;;18.15;48.99;101645.91;5044798;28;20055;-78
2021/04/06 02:01:55;;;;;;;4.35;1.10;;;;;;;18.13;48.63;101642.59;5052808;28;20074;-79
2021/04/06 02:04:22;;;;;;;3.33;0.98;;;;;;;18.12;48.91;101644.41;5053524;28;20032;-78
2021/04/06 02:06:49;;;;;;;2.10;0.98;;;;;;;18.09;48.72;101639.34;5052474;28;20031;-77
2021/04/06 02:09:14;;;;;;;2.10;0.90;;;;;;;18.10;48.98;101635.75;5053287;28;20039;-78
2021/04/06 02:11:40;;;;;;;2.28;0.88;;;;;;;18.09;48.99;101639.34;5047745;28;20025;-78
2021/04/06 02:14:14;;;;;;;2.03;0.80;;;;;;;18.09;49.07;101631.41;5042159;28;20029;-77
2021/04/06 02:16:51;;;;;;;2.15;1.00;;;;;;;18.06;49.13;101623.75;5044642;28;20063;-75
2021/04/06 02:19:30;;;;;;;2.55;1.10;;;;;;;18.04;49.10;101630.16;5053099;28;20029;-77
2021/04/06 02:22:02;;;;;;;3.80;1.13;;;;;;;18.08;49.26;101623.63;5071821;28;20028;-77
2021/04/06 02:24:40;;;;;;;2.40;1.10;;;;;;;18.07;48.84;101624.59;5035140;28;20029;-78
2021/04/06 02:27:16;;;;;;;2.42;1.08;;;;;;;18.02;48.27;101629.47;5040437;28;20025;-78
2021/04/06 02:29:44;;;;;;;2.00;0.90;;;;;;;18.05;49.40;101629.19;5046731;28;20476;-79
2021/04/06 02:32:31;;;;;;;2.60;1.00;;;;;;;18.08;48.85;101621.78;5053000;28;20033;-79
2021/04/06 02:34:59;;;;;;;3.03;0.98;;;;;;;18.02;48.63;101632.97;5050617;28;20029;-79
2021/04/06 02:37:26;;;;;;;4.45;1.17;;;;;;;17.88;48.76;101626.25;5051177;28;20025;-79
2021/04/06 02:39:53;;;;;;;3.08;0.93;;;;;;;17.89;48.95;101627.06;5052471;28;20029;-79
2021/04/06 02:42:41;;;;;;;5.88;1.45;;;;;;;17.86;48.58;101628.19;5039368;28;20168;-79
2021/04/06 02:45:10;;;;;;;2.60;0.95;;;;;;;17.85;49.11;101636.28;5045661;28;20041;-78
2021/04/06 02:47:41;;;;;;;3.67;0.90;;;;;;;17.88;48.93;101628.88;5037186;28;20028;-79
2021/04/06 02:50:09;;;;;;;1.95;0.70;;;;;;;17.86;49.37;101622.06;5038003;28;20099;-79
2021/04/06 02:52:36;;;;;;;3.58;1.00;;;;;;;17.83;49.61;101624.97;5045847;28;20021;-79
2021/04/06 02:55:02;;;;;;;1.65;0.65;;;;;;;17.82;50.02;101624.16;5044060;28;20045;-79
2021/04/06 02:57:30;;;;;;;3.80;0.90;;;;;;;17.82;50.09;101625.97;5039239;28;20532;-79
2021/04/06 02:59:55;;;;;;;4.10;0.80;;;;;;;17.82;50.24;101636.56;5052200;28;20040;-79
2021/04/06 03:02:21;;;;;;;3.30;1.35;;;;;;;18.07;50.24;101622.78;5051986;28;20033;-78
2021/04/06 03:04:47;;;;;;;3.80;0.90;;;;;;;18.19;49.42;101632.25;5051845;28;20039;-76
2021/04/06 03:07:18;;;;;;;5.35;1.45;;;;;;;18.19;49.02;101629.59;5051791;28;20513;-77
2021/04/06 03:09:51;;;;;;;4.93;1.30;;;;;;;18.21;48.56;101627.66;5051724;28;20032;-77
2021/04/06 03:12:16;;;;;;;5.25;1.42;;;;;;;18.24;48.54;101630.00;5045503;28;20032;-80
2021/04/06 03:14:45;;;;;;;4.40;1.30;;;;;;;18.23;48.21;101635.47;5051636;28;20036;-79
2021/04/06 03:17:11;;;;;;;3.28;1.20;;;;;;;18.30;48.80;101628.63;5060928;28;20041;-80
2021/04/06 03:19:37;;;;;;;4.80;1.05;;;;;;;18.43;48.88;101634.47;5051337;28;20086;-80
2021/04/06 03:22:05;;;;;;;2.50;0.80;;;;;;;18.56;48.39;101635.03;5051480;28;20021;-80
2021/04/06 03:24:31;;;;;;;3.33;1.10;;;;;;;18.58;48.49;101641.03;5051784;28;20384;-80
2021/04/06 03:27:00;;;;;;;5.10;0.95;;;;;;;18.58;48.44;101633.09;5051197;28;20502;-80
2021/04/06 03:29:25;;;;;;;6.05;1.40;;;;;;;18.44;49.06;101635.31;5051570;28;20021;-80
2021/04/06 03:31:51;;;;;;;4.25;1.10;;;;;;;18.44;48.78;101628.19;5051226;28;20056;-80
2021/04/06 03:34:16;;;;;;;3.05;0.90;;;;;;;18.50;48.45;101627.63;5049687;28;20029;-80
2021/04/06 03:36:42;;;;;;;3.92;1.00;;;;;;;18.48;48.93;101624.28;5051015;28;20033;-79
2021/04/06 03:39:08;;;;;;;2.78;0.98;;;;;;;18.48;48.66;101618.16;5046585;28;20510;-78
2021/04/06 03:41:34;;;;;;;2.80;0.98;;;;;;;18.38;48.64;101611.06;5050870;28;20021;-76
2021/04/06 03:44:04;;;;;;;4.40;1.20;;;;;;;18.56;48.26;101611.19;5051143;28;20070;-80
2021/04/06 03:46:30;;;;;;;5.18;1.05;;;;;;;18.54;48.68;101607.00;5051512;28;20029;-80
2021/04/06 03:49:13;;;;;;;2.80;1.00;;;;;;;18.45;47.60;101597.22;5050905;28;20036;-80
2021/04/06 03:51:53;;;;;;;5.13;1.20;;;;;;;18.24;47.17;101600.03;5051050;28;20051;-80
2021/04/06 03:54:35;;;;;;;4.10;1.10;;;;;;;18.30;47.30;101596.81;5050798;28;20037;-78
2021/04/06 03:57:14;;;;;;;4.72;1.35;;;;;;;18.28;47.44;101596.16;5050862;28;20017;-81
2021/04/06 03:59:40;;;;;;;3.15;1.00;;;;;;;18.29;47.36;101603.94;5037959;28;20029;-81
2021/04/06 04:02:05;;;;;;;3.40;0.95;;;;;;;18.16;47.07;101602.56;5051140;28;20553;-81
2021/04/06 04:04:31;;;;;;;4.38;1.20;;;;;;;18.09;47.42;101604.91;5048883;28;20021;-80
2021/04/06 04:07:02;;;;;;;3.17;1.30;;;;;;;17.87;46.74;101599.91;5050751;28;20033;-77
2021/04/06 04:09:28;;;;;;;3.58;1.05;;;;;;;17.84;47.31;101602.81;5050498;28;20043;-78
2021/04/06 04:11:53;;;;;;;3.85;1.10;;;;;;;17.83;47.13;101606.44;5050322;28;20013;-78
2021/04/06 04:14:19;;;;;;;4.10;1.00;;;;;;;18.04;47.76;101606.31;5045878;28;20028;-78
2021/04/06 04:16:44;;;;;;;3.97;0.90;;;;;;;18.11;47.75;101602.13;5046971;28;20029;-78
2021/04/06 04:19:09;;;;;;;3.63;0.90;;;;;;;18.15;47.64;101598.22;5032428;28;20423;-78
2021/04/06 04:21:37;;;;;;;2.75;0.93;;;;;;;18.18;47.97;101592.66;5050155;28;20040;-79
2021/04/06 04:24:03;;;;;;;4.30;0.77;;;;;;;18.19;48.16;101575.78;5050848;28;20049;-78
2021/04/06 04:26:28;;;;;;;2.88;1.15;;;;;;;18.19;48.09;101581.06;5050296;28;20093;-78
2021/04/06 04:28:53;;;;;;;1.95;0.75;;;;;;;18.23;47.95;101588.63;5050474;28;20476;-78
2021/04/06 04:31:19;;;;;;;3.70;1.30;;;;;;;18.19;47.82;101591.66;5079430;28;20068;-78
2021/04/06 04:33:44;;;;;;;3.25;0.93;;;;;;;18.23;47.96;101588.63;5038616;28;20083;-78
2021/04/06 04:36:10;;;;;;;4.13;1.08;;;;;;;18.28;47.75;101594.34;5048894;28;20082;-79
2021/04/06 04:38:35;;;;;;;3.03;0.70;;;;;;;18.31;48.43;101591.38;5035548;28;20083;-79
2021/04/06 04:41:00;;;;;;;4.78;1.27;;;;;;;18.26;48.36;101598.94;5050120;28;20071;-77
2021/04/06 04:43:26;;;;;;;5.40;1.10;;;;;;;17.76;46.77;101592.09;5049016;28;20464;-78
2021/04/06 04:45:51;;;;;;;5.60;0.98;;;;;;;17.89;48.32;101588.19;5037555;28;20033;-78
2021/04/06 04:48:17;;;;;;;3.08;0.80;;;;;;;17.87;48.42;101589.31;5036279;28;20025;-78
2021/04/06 04:50:42;;;;;;;4.28;1.10;;;;;;;17.86;48.44;101592.94;5050100;28;20033;-76
2021/04/06 04:53:07;;;;;;;3.40;1.00;;;;;;;17.86;48.77;101593.78;5043881;28;20468;-80
2021/04/06 04:55:33;;;;;;;3.30;0.80;;;;;;;17.86;48.58;101592.94;5035182;28;20045;-80
2021/04/06 04:57:58;;;;;;;3.55;0.77;;;;;;;17.87;48.60;101589.31;5042035;28;20106;-80
2021/04/06 05:00:24;;;;;;;3.45;0.77;;;;;;;17.85;48.60;101583.31;5049123;28;20531;-80
2021/04/06 05:02:49;;;;;;;2.20;0.88;;;;;;;17.83;48.91;101579.97;5037583;28;20021;-79
2021/04/06 05:05:16;;;;;;;6.07;0.93;;;;;;;17.82;49.12;101583.59;5049663;28;20021;-79
2021/04/06 05:07:42;;;;;;;5.53;1.05;;;;;;;17.81;48.90;101579.28;5049838;28;20070;-77
2021/04/06 05:10:11;;;;;;;5.55;1.00;;;;;;;17.81;49.00;101579.28;5050043;28;20456;-77
2021/04/06 05:12:36;;;;;;;3.63;0.98;;;;;;;17.78;49.08;101584.84;5036159;28;20044;-77
2021/04/06 05:15:04;;;;;;;3.67;1.00;;;;;;;17.79;49.41;101590.00;5044363;28;20026;-78
2021/04/06 05:17:29;;;;;;;2.55;0.93;;;;;;;17.78;48.98;101595.44;5043806;28;20076;-77
2021/04/06 05:19:55;;;;;;;5.00;1.23;;;;;;;17.76;49.05;101590.28;5041283;28;20426;-76
2021/04/06 05:22:20;;;;;;;4.57;1.27;;;;;;;17.77;49.40;101586.66;5054198;28;20029;-77
2021/04/06 05:24:46;;;;;;;3.10;0.90;;;;;;;17.81;49.18;101589.88;5054032;28;20052;-76
2021/04/06 05:27:11;;;;;;;5.13;1.17;;;;;;;17.80;49.65;101585.53;5053559;28;20534;-77
2021/04/06 05:29:36;;;;;;;4.30;1.10;;;;;;;17.80;49.34;101583.75;5053330;28;20082;-77
2021/04/06 05:32:02;;;;;;;3.58;0.85;;;;;;;17.80;49.65;101574.94;5053651;28;20513;-78
2021/04/06 05:34:28;;;;;;;6.57;0.93;;;;;;;18.12;49.51;101577.31;5052960;28;20029;-77
2021/04/06 05:36:53;;;;;;;4.20;1.10;;;;;;;17.92;49.71;101574.69;5053697;28;20032;-80
2021/04/06 05:39:18;;;;;;;3.53;0.90;;;;;;;17.86;50.47;101577.91;5053537;28;20464;-79
2021/04/06 05:41:46;;;;;;;2.60;0.82;;;;;;;17.81;50.68;101584.56;5052920;28;20040;-78
2021/04/06 05:44:12;;;;;;;2.85;0.93;;;;;;;17.82;50.25;101581.81;5052298;28;20041;-78
2021/04/06 05:46:39;;;;;;;4.05;0.70;;;;;;;18.04;50.43;101578.00;5043504;28;20040;-77
2021/04/06 05:49:11;;;;;;;2.85;1.10;;;;;;;18.14;50.99;101584.13;5052031;28;20021;-77
2021/04/06 05:51:38;;;;;;;14.35;2.00;;;;;;;17.18;45.29;101593.72;5049147;28;20017;-78
2021/04/06 05:54:04;;;;;;;8.00;1.58;;;;;;;17.19;47.37;101596.25;5053250;28;20032;-71
2021/04/06 05:56:30;;;;;;;6.05;1.10;;;;;;;17.42;47.84;101589.75;5052775;28;20136;-72
2021/04/06 05:58:58;;;;;;;5.55;1.20;;;;;;;17.52;47.53;101592.47;5053202;28;20135;-71
2021/04/06 06:01:26;;;;;;;4.60;0.90;;;;;;;17.52;47.09;101587.16;5046398;28;20021;-71
2021/04/06 06:03:52;;;;;;;3.35;1.02;;;;;;;17.48;46.96;101583.09;5042476;28;20016;-71
2021/04/06 06:06:17;;;;;;;5.40;1.10;;;;;;;17.47;46.86;101587.53;5044630;28;20036;-72
2021/04/06 06:08:46;;;;;;;3.75;1.00;;;;;;;17.48;47.37;101585.75;5052878;28;20021;-71
2021/04/06 06:11:12;;;;;;;3.17;1.05;;;;;;;17.43;47.13;101583.50;5052702;28;20031;-71
2021/04/06 06:13:37;;;;;;;2.35;0.90;;;;;;;17.43;47.00;101587.97;5052773;28;20021;-70
2021/04/06 06:16:07;;;;;;;4.45;1.00;;;;;;;17.42;47.16;101602.19;5040471;28;20425;-71
2021/04/06 06:18:33;;;;;;;1.98;0.70;;;;;;;17.40;46.99;101596.19;5051706;28;20474;-71
2021/04/06 06:20:58;;;;;;;3.92;0.90;;;;;;;17.39;46.97;101599.78;5051286;28;20029;-71
2021/04/06 06:23:24;;;;;;;6.05;1.20;;;;;;;17.38;46.69;101598.13;5052529;28;20075;-71
2021/04/06 06:26:04;;;;;;;3.35;1.10;;;;;;;17.35;46.67;101603.69;5052308;28;20399;-70
2021/04/06 06:28:29;;;;;;;5.53;1.30;;;;;;;17.33;46.69;101598.53;5051704;28;20506;-69
2021/04/06 06:30:56;;;;;;;4.75;1.15;;;;;;;17.35;46.93;101599.25;5051503;28;20033;-70
2021/04/06 06:33:28;;;;;;;5.53;1.40;;;;;;;17.34;46.64;101609.94;5052462;28;20033;-71
2021/04/06 06:35:57;;;;;;;5.45;1.38;;;;;;;17.30;46.61;101604.09;5045926;28;20099;-70
2021/04/06 06:38:30;;;;;;;5.25;1.35;;;;;;;17.30;46.28;101595.31;5050792;28;20032;-71
2021/04/06 06:40:59;;;;;;;5.93;1.40;;;;;;;17.21;46.59;101598.78;5040048;28;20017;-72
2021/04/06 06:43:25;;;;;;;5.88;1.55;;;;;;;17.27;46.72;101590.31;5030769;28;20026;-71
2021/04/06 06:45:51;;;;;;;5.18;1.60;;;;;;;17.26;46.37;101589.47;5051970;28;20033;-71
2021/04/06 06:48:33;;;;;;;7.45;1.80;;;;;;;17.91;46.82;101593.34;5044456;28;20131;-76
2021/04/06 06:50:59;;;;;;;10.68;2.15;;;;;;;18.48;47.73;101610.19;5047932;28;20036;-71
2021/04/06 06:53:41;;;;;;;8.55;2.25;;;;;;;18.63;45.97;101596.38;5051202;28;20076;-71
2021/04/06 06:56:10;;;;;;;9.88;2.28;;;;;;;18.68;45.37;101593.28;5040856;28;20081;-72
2021/04/06 06:58:41;;;;;;;11.32;2.53;;;;;;;18.70;46.03;101591.31;5051475;28;20072;-72
2021/04/06 07:01:22;;;;;;;12.35;2.30;;;;;;;18.69;45.87;101587.81;5052155;28;20112;-70
2021/04/06 07:04:09;;;;;;;7.40;2.60;;;;;;;18.77;45.91;101592.44;5040160;28;20030;-72
2021/04/06 07:06:37;;;;;;;12.25;2.70;;;;;;;18.81;45.65;101585.84;5039252;28;20561;-70
2021/04/06 07:09:27;;;;;;;7.03;2.15;;;;;;;18.90;45.83;101581.47;5050373;28;20072;-73
2021/04/06 07:11:53;;;;;;;8.35;2.45;;;;;;;18.89;45.08;101590.44;5038303;28;20047;-73
2021/04/06 07:14:23;;;;;;;6.88;2.10;;;;;;;19.03;44.96;101604.06;5051538;28;20032;-72
2021/04/06 07:16:49;;;;;;;6.03;1.80;;;;;;;18.84;44.13;101595.34;5048745;28;20061;-73
2021/04/06 07:19:14;;;;;;;7.07;2.10;;;;;;;18.50;44.19;101587.84;5050260;28;20037;-69
2021/04/06 07:21:41;;;;;;;18.67;4.03;;;;;;;17.87;43.74;101586.69;5049909;28;20082;-71
2021/04/06 07:24:10;;;;;;;17.15;4.45;;;;;;;17.63;44.54;101579.09;5050201;28;20075;-72
2021/04/06 07:26:36;;;;;;;19.20;4.40;;;;;;;17.58;44.80;101583.09;5050065;28;20071;-71
2021/04/06 07:29:02;;;;;;;18.77;3.60;;;;;;;17.68;44.36;101584.00;5050066;28;20095;-72
2021/04/06 07:31:27;;;;;;;14.85;4.13;;;;;;;17.58;44.38;101591.88;5051037;28;20480;-67
2021/04/06 07:33:53;;;;;;;12.80;3.28;;;;;;;17.37;43.94;101591.16;5050939;28;20037;-67
2021/04/06 07:36:22;;;;;;;13.32;3.25;;;;;;;17.17;45.38;101584.97;5049842;28;20037;-68
2021/04/06 07:38:50;;;;;;;10.73;2.90;;;;;;;17.31;45.04;101583.78;5049991;28;20032;-68
2021/04/06 07:41:18;;;;;;;11.82;3.25;;;;;;;17.21;45.11;101588.19;5049983;28;20070;-68
2021/04/06 07:43:45;;;;;;;16.33;3.38;;;;;;;17.06;44.62;101587.72;5050690;28;20108;-69
2021/04/06 07:46:34;;;;;;;11.23;2.40;;;;;;;17.03;43.62;101580.88;5050904;28;20569;-69
2021/04/06 07:49:27;;;;;;;10.90;2.58;;;;;;;17.23;44.71;101580.94;5071021;28;20140;-68
2021/04/06 07:51:54;;;;;;;9.55;2.55;;;;;;;17.14;44.17;101585.25;5036426;28;20068;-69
2021/04/06 07:54:25;;;;;;;9.73;2.30;;;;;;;17.12;43.63;101589.00;5050405;28;20052;-69
2021/04/06 07:56:55;;;;;;;8.48;1.95;;;;;;;17.17;43.39;101581.50;5050546;28;20029;-69
2021/04/06 07:59:20;;;;;;;7.28;1.85;;;;;;;17.12;43.65;101581.88;5050833;28;20033;-69
2021/04/06 08:01:52;;;;;;;7.65;1.80;;;;;;;17.16;43.18;101583.31;5082198;28;20456;-69
2021/04/06 08:04:23;;;;;;;5.78;2.00;;;;;;;17.12;42.85;101570.50;5043167;28;20076;-69
2021/04/06 08:06:52;;;;;;;5.43;1.80;;;;;;;17.20;43.29;101570.66;5037201;28;20055;-74
2021/04/06 08:09:34;;;;;;;8.00;1.70;;;;;;;17.06;42.26;101570.06;5050463;28;20090;-67
2021/04/06 08:12:10;;;;;;;8.93;1.92;;;;;;;16.97;41.89;101564.72;5038444;28;20029;-68
2021/04/06 08:14:40;;;;;;;6.05;1.45;;;;;;;16.90;41.55;101566.22;5050300;28;20076;-68
2021/04/06 08:17:23;;;;;;;6.35;1.80;;;;;;;16.82;41.46;101568.69;5050113;28;20475;-68
2021/04/06 08:19:50;;;;;;;6.40;1.58;;;;;;;16.96;41.94;101565.72;5036944;28;20036;-68
2021/04/06 08:22:30;;;;;;;8.98;1.65;;;;;;;16.98;43.05;101572.53;5050370;28;20075;-71
2021/04/06 08:25:23;;;;;;;7.22;1.60;;;;;;;16.93;41.98;101563.31;5036963;28;20033;-71
2021/04/06 08:27:49;;;;;;;6.07;1.40;;;;;;;16.74;41.55;101564.06;5038746;28;20479;-72
2021/04/06 08:30:27;;;;;;;4.78;1.20;;;;;;;16.60;41.20;101567.06;5047962;28;20025;-71
2021/04/06 08:33:01;;;;;;;6.72;1.55;;;;;;;16.58;42.01;101571.59;5050137;28;20033;-71
2021/04/06 08:35:45;;;;;;;6.90;1.70;;;;;;;16.57;42.21;101573.41;5049624;28;20033;-72
2021/04/06 08:38:22;;;;;;;5.68;1.23;;;;;;;16.60;43.12;101570.56;5030983;28;20104;-71
2021/04/06 08:41:05;;;;;;;5.95;1.27;;;;;;;16.60;43.13;101573.19;5037451;28;20566;-70
2021/04/06 08:43:42;;;;;;;7.28;1.30;;;;;;;16.60;42.67;101582.91;5036446;28;20025;-70
2021/04/06 08:46:15;;;;;;;8.38;1.65;;;;;;;16.59;42.38;101575.97;5039098;28;20132;-70
2021/04/06 08:48:44;;;;;;;5.20;1.30;;;;;;;16.58;42.44;101579.53;5047198;28;20048;-70
2021/04/06 08:51:24;;;;;;;6.18;1.63;;;;;;;16.55;42.44;101585.94;5043476;28;20118;-70
2021/04/06 08:53:52;;;;;;;8.83;1.87;;;;;;;16.50;42.31;101576.72;5043793;28;20033;-70
2021/04/06 08:56:21;;;;;;;8.48;1.85;;;;;;;16.52;41.94;101570.31;5049897;28;20041;-71
2021/04/06 08:58:46;;;;;;;8.57;1.65;;;;;;;16.51;42.60;101578.38;5050012;28;20021;-71
2021/04/06 09:01:11;;;;;;;7.45;1.90;;;;;;;16.53;43.01;101571.16;5049572;28;20522;-71
2021/04/06 09:03:37;;;;;;;8.75;2.22;;;;;;;16.56;43.08;101569.06;5049594;28;20033;-70
2021/04/06 09:06:12;;;;;;;7.40;1.85;;;;;;;16.57;43.25;101575.22;5049639;28;20048;-70
2021/04/06 09:08:55;;;;;;;7.95;2.05;;;;;;;16.61;43.99;101569.56;5049566;28;20532;-70
2021/04/06 09:11:23;;;;;;;9.02;2.08;;;;;;;16.56;43.73;101571.72;5049631;28;20119;-70
2021/04/06 09:13:50;;;;;;;6.00;1.90;;;;;;;16.64;43.80;101574.59;5049613;28;20472;-71
2021/04/06 09:16:28;;;;;;;6.65;1.98;;;;;;;16.61;44.22;101579.28;5049252;28;20029;-70
2021/04/06 09:18:55;;;;;;;6.13;1.67;;;;;;;16.65;43.99;101573.63;5049829;28;20029;-70
2021/04/06 09:21:23;;;;;;;9.32;1.65;;;;;;;16.62;44.23;101575.69;5049467;28;20060;-71
2021/04/06 09:23:55;;;;;;;8.27;1.83;;;;;;;16.53;43.76;101572.00;5045538;28;20622;-74
2021/04/06 09:26:21;;;;;;;5.57;1.50;;;;;;;16.60;44.15;101556.50;5073013;28;20028;-75
2021/04/06 09:28:47;;;;;;;7.95;1.60;;;;;;;16.71;43.99;101568.78;5048332;28;20047;-75
2021/04/06 09:31:13;;;;;;;7.50;1.63;;;;;;;16.77;42.97;101581.47;5041364;28;20488;-78
2021/04/06 09:33:39;;;;;;;6.78;1.27;;;;;;;16.59;43.06;101571.50;5039003;28;20037;-74
2021/04/06 09:36:05;;;;;;;3.00;0.98;;;;;;;16.17;39.57;101568.00;5035526;28;20061;-74
2021/04/06 09:38:35;;;;;;;5.35;1.10;;;;;;;15.88;39.42;101553.75;5047854;28;20044;-74
2021/04/06 09:41:01;;;;;;;2.95;0.82;;;;;;;15.55;38.57;101554.69;5032808;28;20025;-74
2021/04/06 09:43:26;;;;;;;4.35;0.80;;;;;;;15.74;39.47;101551.44;5032379;28;20052;-74
2021/04/06 09:45:52;;;;;;;5.82;0.90;;;;;;;15.61;38.49;101559.50;5038954;28;20037;-74
2021/04/06 09:48:18;;;;;;;3.42;0.88;;;;;;;15.42;37.98;101556.63;5063854;28;20029;-74
2021/04/06 09:50:56;;;;;;;4.35;0.98;;;;;;;15.15;38.63;101554.41;5030568;28;20064;-74
2021/04/06 09:53:22;;;;;;;7.82;0.80;;;;;;;15.05;38.01;101552.63;5034007;28;20033;-74
2021/04/06 09:55:47;;;;;;;3.60;0.90;;;;;;;14.99;37.67;101556.56;5030005;28;20049;-74
2021/04/06 09:58:14;;;;;;;3.53;0.93;;;;;;;14.90;38.02;101547.59;5045568;28;20025;-74
2021/04/06 10:00:39;;;;;;;4.20;0.88;;;;;;;14.66;38.13;101540.78;5046717;28;20060;-74
2021/04/06 10:03:09;;;;;;;3.00;0.57;;;;;;;15.02;38.52;101547.59;5034326;28;20469;-74
2021/04/06 10:05:37;;;;;;;5.95;0.63;;;;;;;14.68;38.78;101554.69;5045322;28;20120;-74
2021/04/06 10:08:03;;;;;;;3.70;0.55;;;;;;;14.50;38.83;101555.13;5052612;28;20029;-76
2021/04/06 10:10:30;;;;;;;5.53;1.10;;;;;;;14.33;38.50;101552.06;5052071;28;20487;-75
2021/04/06 10:12:57;;;;;;;4.47;1.15;;;;;;;14.47;38.67;101552.75;5040201;28;20017;-74
2021/04/06 10:15:25;;;;;;;3.95;1.10;;;;;;;14.55;38.48;101557.41;5052326;28;20033;-74
2021/04/06 10:17:52;;;;;;;5.43;1.00;;;;;;;15.02;38.94;101548.44;5052208;28;20058;-74
2021/04/06 10:20:21;;;;;;;5.45;0.90;;;;;;;15.04;38.85;101569.38;5051053;28;20507;-74
2021/04/06 10:22:57;;;;;;;5.25;0.80;;;;;;;14.64;38.26;101567.22;5046367;28;20052;-71
2021/04/06 10:25:28;;;;;;;3.95;0.60;;;;;;;14.31;40.17;101548.72;5034888;28;20090;-71
2021/04/06 10:27:56;;;;;;;3.53;0.80;;;;;;;15.17;39.86;101539.31;5032495;28;20132;-74
2021/04/06 10:30:32;;;;;;;9.65;1.00;;;;;;;15.65;40.65;101541.59;5040897;28;20037;-68
2021/04/06 10:33:17;;;;;;;4.50;0.70;;;;;;;15.82;40.69;101541.06;5049807;28;20099;-71
2021/04/06 10:35:44;;;;;;;7.95;0.90;;;;;;;15.92;40.70;101538.50;5049804;28;20095;-72
2021/04/06 10:38:34;;;;;;;5.60;0.80;;;;;;;15.95;40.89;101544.34;5035859;28;20037;-71
2021/04/06 10:41:24;;;;;;;5.57;1.00;;;;;;;15.98;40.65;101530.91;5046045;28;20543;-71
2021/04/06 10:43:51;;;;;;;3.72;0.82;;;;;;;16.10;40.86;101537.78;5049488;28;20068;-72
2021/04/06 10:46:22;;;;;;;4.00;0.88;;;;;;;16.15;41.06;101530.31;5046429;28;20025;-71
2021/04/06 10:48:50;;;;;;;3.88;1.00;;;;;;;16.89;39.73;101519.59;5039800;28;20048;-70
2021/04/06 10:51:17;;;;;;;3.78;0.60;;;;;;;16.04;40.24;101525.13;5047769;28;20102;-71
2021/04/06 10:53:49;;;;;;;3.22;0.80;;;;;;;16.03;40.11;101533.16;5049399;28;20522;-70
2021/04/06 10:56:23;;;;;;;4.45;0.77;;;;;;;16.14;40.09;101517.25;5048107;28;20072;-71
2021/04/06 10:58:51;;;;;;;5.70;1.00;;;;;;;16.10;40.96;101514.03;5038239;28;20373;-71
2021/04/06 11:01:22;;;;;;;3.33;0.70;;;;;;;16.18;40.71;101510.75;5049525;28;20404;-71
2021/04/06 11:03:54;;;;;;;3.55;0.90;;;;;;;16.33;39.64;101505.97;5048196;28;20029;-79
2021/04/06 11:06:22;;;;;;;;;;;;;;;16.21;39.98;101513.97;5049975;28;20804;-70
2021/04/06 11:08:51;;;;;;;2.58;0.73;;;;;;;16.11;40.94;101515.69;5036054;28;20334;-70
2021/04/06 11:11:22;;;;;;;7.07;1.40;;;;;;;16.19;41.16;101489.50;5049147;28;20032;-70
2021/04/06 11:13:49;;;;;;;8.52;1.23;;;;;;;16.20;41.14;101511.47;5048482;28;20514;-70
2021/04/06 11:16:15;;;;;;;8.15;1.30;;;;;;;16.23;41.30;101508.56;5048859;28;20049;-70
2021/04/06 11:18:42;;;;;;;9.57;1.55;;;;;;;16.29;41.49;101494.84;5049225;28;20021;-70
2021/04/06 11:21:07;;;;;;;6.18;1.52;;;;;;;16.31;41.43;101505.25;5045637;28;20036;-77
2021/04/06 11:23:33;;;;;;;4.95;1.17;;;;;;;16.76;41.48;101511.09;5046134;28;20025;-70
2021/04/06 11:25:58;;;;;;;6.30;0.90;;;;;;;16.72;39.74;101488.50;5047302;28;20491;-70
2021/04/06 11:28:24;;;;;;;2.63;0.70;;;;;;;16.69;39.81;101494.91;5048998;28;20306;-69
2021/04/06 11:30:49;;;;;;;6.30;1.33;;;;;;;16.87;41.85;101501.22;5049326;28;20040;-69
2021/04/06 11:33:15;;;;;;;4.93;1.05;;;;;;;16.95;39.78;101480.25;5034462;28;20034;-69